createdAt,value
2022-10-27T00:02:42.995Z,12.40
2022-10-27T00:05:35.220Z,12.50
2022-10-27T00:08:27.295Z,12.60
2022-10-27T00:11:19.954Z,12.60
2022-10-27T00:14:12.144Z,12.70
2022-10-27T00:17:04.284Z,12.60
2022-10-27T00:19:56.470Z,12.70
2022-10-27T00:22:48.699Z,12.80
2022-10-27T00:25:41.022Z,12.80
2022-10-27T00:28:33.891Z,12.80
2022-10-27T00:31:26.010Z,13.00
2022-10-27T00:34:18.131Z,12.90
2022-10-27T00:37:10.248Z,12.90
2022-10-27T00:40:02.367Z,12.90
2022-10-27T00:42:54.456Z,12.90
2022-10-27T00:45:46.732Z,12.90
2022-10-27T00:48:39.011Z,13.00
2022-10-27T00:51:31.309Z,13.00
2022-10-27T00:54:28.094Z,13.00
2022-10-27T00:57:20.269Z,12.90
2022-10-27T01:00:12.923Z,12.80
2022-10-27T01:03:07.206Z,12.80
2022-10-27T01:05:59.990Z,12.80
2022-10-27T01:08:52.367Z,12.90
2022-10-27T01:11:44.471Z,12.90
2022-10-27T01:14:37.288Z,12.80
2022-10-27T01:17:38.514Z,12.70
2022-10-27T01:20:36.843Z,12.60
2022-10-27T01:23:37.697Z,12.60
2022-10-27T01:26:35.910Z,12.70
2022-10-27T01:29:39.675Z,12.70
2022-10-27T01:32:57.240Z,12.70
2022-10-27T01:36:01.777Z,12.60
2022-10-27T01:39:15.771Z,12.50
2022-10-27T01:42:15.942Z,12.60
2022-10-27T01:45:11.696Z,12.60
2022-10-27T01:48:05.736Z,12.50
2022-10-27T01:51:01.603Z,12.50
2022-10-27T01:53:56.244Z,12.50
2022-10-27T01:56:54.135Z,12.40
2022-10-27T02:00:05.409Z,12.40
2022-10-27T02:03:10.075Z,12.50
2022-10-27T02:06:07.360Z,12.50
2022-10-27T02:09:14.554Z,12.50
2022-10-27T02:12:30.699Z,12.50
2022-10-27T02:15:40.108Z,12.30
2022-10-27T02:18:40.391Z,12.00
2022-10-27T02:21:34.536Z,11.90
2022-10-27T02:24:27.029Z,11.90
2022-10-27T02:27:33.228Z,11.80
2022-10-27T02:30:25.394Z,11.80
2022-10-27T02:33:18.484Z,11.80
2022-10-27T02:36:10.589Z,11.70
2022-10-27T02:39:02.779Z,11.70
2022-10-27T02:41:54.909Z,11.70
2022-10-27T02:44:47.025Z,11.70
2022-10-27T02:47:39.141Z,11.70
2022-10-27T02:50:31.311Z,11.70
2022-10-27T02:53:23.493Z,11.80
2022-10-27T02:56:15.636Z,11.80
2022-10-27T02:59:07.763Z,11.80
2022-10-27T03:01:59.956Z,11.80
2022-10-27T03:04:52.175Z,11.80
2022-10-27T03:07:44.575Z,11.80
2022-10-27T03:10:36.775Z,11.80
2022-10-27T03:13:28.882Z,11.80
2022-10-27T03:16:20.986Z,11.80
2022-10-27T03:19:13.087Z,11.80
2022-10-27T03:22:05.211Z,11.80
2022-10-27T03:24:57.756Z,11.80
2022-10-27T03:27:49.862Z,11.80
2022-10-27T03:30:42.062Z,11.80
2022-10-27T03:33:34.184Z,12.00
2022-10-27T03:36:26.367Z,12.00
2022-10-27T03:39:18.482Z,12.10
2022-10-27T03:42:10.600Z,12.20
2022-10-27T03:45:02.733Z,12.30
2022-10-27T03:48:08.475Z,12.30
2022-10-27T03:51:00.683Z,12.30
2022-10-27T03:53:52.861Z,12.40
2022-10-27T03:56:44.974Z,12.40
2022-10-27T03:59:37.121Z,12.50
2022-10-27T04:02:29.285Z,12.50
2022-10-27T04:05:22.796Z,12.40
2022-10-27T04:08:14.911Z,12.40
2022-10-27T04:11:07.002Z,12.40
2022-10-27T04:13:59.136Z,12.30
2022-10-27T04:16:51.562Z,12.40
2022-10-27T04:19:43.971Z,12.50
2022-10-27T04:22:36.168Z,12.60
2022-10-27T04:25:28.311Z,12.60
2022-10-27T04:28:20.699Z,12.60
2022-10-27T04:31:13.485Z,12.60
2022-10-27T04:34:05.724Z,12.60
2022-10-27T04:36:57.875Z,12.50
2022-10-27T04:39:50.002Z,12.50
2022-10-27T04:42:46.768Z,12.50
2022-10-27T04:45:38.889Z,12.40
2022-10-27T04:48:31.074Z,12.40
2022-10-27T04:51:23.286Z,12.40
2022-10-27T04:54:15.438Z,12.40
2022-10-27T04:57:08.243Z,12.40
2022-10-27T05:00:00.377Z,12.50
2022-10-27T05:02:57.286Z,12.50
2022-10-27T05:05:49.607Z,12.50
2022-10-27T05:08:49.155Z,12.50
2022-10-27T05:11:41.311Z,12.40
2022-10-27T05:14:33.425Z,12.50
2022-10-27T05:17:25.531Z,12.60
2022-10-27T05:20:17.753Z,12.60
2022-10-27T05:23:09.971Z,12.60
2022-10-27T05:26:02.318Z,12.60
2022-10-27T05:28:54.416Z,12.60
2022-10-27T05:31:46.531Z,12.60
2022-10-27T05:34:38.748Z,12.70
2022-10-27T05:37:30.958Z,12.80
2022-10-27T05:40:23.043Z,12.70
2022-10-27T05:43:15.139Z,12.70
2022-10-27T05:46:07.427Z,12.70
2022-10-27T05:48:59.511Z,12.70
2022-10-27T05:51:52.585Z,12.70
2022-10-27T05:54:44.681Z,12.70
2022-10-27T05:57:36.773Z,12.80
2022-10-27T06:00:31.138Z,12.70
2022-10-27T06:03:25.167Z,12.80
2022-10-27T06:06:17.520Z,12.60
2022-10-27T06:09:09.639Z,12.40
2022-10-27T06:12:02.081Z,12.10
2022-10-27T06:14:54.187Z,12.10
2022-10-27T06:17:51.761Z,12.10
2022-10-27T06:20:44.679Z,12.00
2022-10-27T06:23:37.969Z,12.00
2022-10-27T06:26:30.115Z,12.00
2022-10-27T06:29:22.274Z,12.00
2022-10-27T06:32:14.459Z,12.00
2022-10-27T06:35:08.523Z,12.00
2022-10-27T06:38:00.615Z,12.00
2022-10-27T06:40:52.737Z,12.10
2022-10-27T06:43:44.855Z,12.10
2022-10-27T06:46:39.815Z,12.20
2022-10-27T06:49:31.944Z,12.20
2022-10-27T06:52:24.118Z,12.20
2022-10-27T06:55:16.286Z,12.30
2022-10-27T06:58:08.499Z,12.40
2022-10-27T07:01:00.605Z,12.40
2022-10-27T07:03:52.757Z,12.40
2022-10-27T07:06:44.905Z,12.40
2022-10-27T07:09:37.097Z,12.50
2022-10-27T07:12:29.268Z,12.60
2022-10-27T07:15:21.454Z,12.70
2022-10-27T07:18:13.623Z,12.90
2022-10-27T07:21:06.248Z,13.00
2022-10-27T07:23:58.395Z,13.10
2022-10-27T07:26:51.738Z,13.20
2022-10-27T07:29:43.910Z,13.20
2022-10-27T07:32:36.017Z,13.30
2022-10-27T07:35:28.848Z,13.30
2022-10-27T07:38:21.250Z,13.40
2022-10-27T07:41:13.385Z,13.40
2022-10-27T07:44:05.548Z,13.60
2022-10-27T07:46:57.676Z,13.70
2022-10-27T07:49:49.761Z,13.80
2022-10-27T07:52:46.657Z,13.80
2022-10-27T07:55:39.013Z,13.90
2022-10-27T07:58:31.506Z,14.00
2022-10-27T08:01:23.774Z,14.00
2022-10-27T08:04:15.984Z,14.00
2022-10-27T08:07:08.115Z,13.90
2022-10-27T08:10:00.350Z,13.80
2022-10-27T08:12:52.481Z,13.90
2022-10-27T08:15:44.668Z,13.90
2022-10-27T08:18:36.803Z,14.00
2022-10-27T08:21:28.920Z,13.90
2022-10-27T08:24:21.039Z,13.80
2022-10-27T08:27:13.181Z,13.90
2022-10-27T08:30:05.642Z,13.90
2022-10-27T08:32:59.875Z,13.90
2022-10-27T08:35:52.141Z,13.80
2022-10-27T08:38:45.336Z,13.60
2022-10-27T08:41:44.433Z,13.40
2022-10-27T08:44:43.019Z,13.30
2022-10-27T08:47:35.230Z,13.10
2022-10-27T08:50:42.753Z,13.10
2022-10-27T08:53:37.021Z,13.10
2022-10-27T08:56:39.068Z,13.10
2022-10-27T08:59:34.771Z,13.10
2022-10-27T09:03:08.654Z,13.10
2022-10-27T09:06:24.649Z,13.10
2022-10-27T09:09:38.518Z,13.10
2022-10-27T09:12:52.265Z,13.10
2022-10-27T09:15:55.085Z,13.10
2022-10-27T09:18:51.609Z,13.10
2022-10-27T09:21:44.186Z,13.00
2022-10-27T09:24:38.560Z,13.00
2022-10-27T09:27:31.441Z,13.00
2022-10-27T09:30:23.764Z,13.00
2022-10-27T09:33:20.574Z,13.10
2022-10-27T09:36:14.785Z,13.10
2022-10-27T09:39:08.015Z,13.10
2022-10-27T09:42:00.355Z,13.20
2022-10-27T09:44:59.101Z,13.00
2022-10-27T09:47:55.572Z,12.90
2022-10-27T09:51:00.168Z,12.70
2022-10-27T09:53:53.607Z,12.70
2022-10-27T09:56:45.795Z,12.80
2022-10-27T09:59:39.346Z,12.80
2022-10-27T10:02:44.303Z,12.80
2022-10-27T10:05:40.158Z,12.90
2022-10-27T10:08:35.268Z,12.90
2022-10-27T10:11:27.411Z,12.90
2022-10-27T10:14:25.002Z,13.00
2022-10-27T10:17:25.673Z,13.10
2022-10-27T10:20:31.360Z,13.10
2022-10-27T10:23:26.978Z,13.20
2022-10-27T10:26:26.292Z,13.20
2022-10-27T10:29:45.479Z,13.30
2022-10-27T10:32:46.947Z,13.40
2022-10-27T10:35:49.020Z,13.30
2022-10-27T10:38:42.709Z,13.20
2022-10-27T10:41:34.899Z,13.30
2022-10-27T10:44:27.054Z,13.50
2022-10-27T10:47:28.071Z,13.70
2022-10-27T10:50:20.285Z,13.90
2022-10-27T10:53:24.597Z,13.90
2022-10-27T10:56:25.896Z,14.00
2022-10-27T10:59:21.049Z,14.10
2022-10-27T11:02:26.815Z,14.30
2022-10-27T11:08:24.771Z,14.30
2022-10-27T11:11:20.234Z,14.40
2022-10-27T11:14:15.674Z,14.40
2022-10-27T11:17:07.869Z,14.50
2022-10-27T11:20:01.004Z,14.50
2022-10-27T11:22:54.502Z,14.70
2022-10-27T11:25:47.375Z,14.70
2022-10-27T11:28:48.706Z,14.60
2022-10-27T11:31:43.835Z,14.70
2022-10-27T11:35:03.878Z,14.80
2022-10-27T11:38:19.120Z,14.90
2022-10-27T11:41:35.610Z,14.90
2022-10-27T11:44:36.729Z,14.80
2022-10-27T11:47:41.989Z,15.00
2022-10-27T11:50:37.925Z,15.10
2022-10-27T11:53:30.115Z,15.20
2022-10-27T11:56:24.966Z,15.30
2022-10-27T11:59:34.834Z,15.30
2022-10-27T12:02:39.212Z,15.30
2022-10-27T12:06:00.426Z,15.20
2022-10-27T12:09:19.018Z,15.20
2022-10-27T12:12:21.674Z,15.40
2022-10-27T12:15:51.960Z,15.50
2022-10-27T12:19:02.775Z,15.70
2022-10-27T12:22:02.877Z,15.70
2022-10-27T12:25:01.155Z,15.80
2022-10-27T12:27:57.769Z,16.00
2022-10-27T12:30:50.113Z,16.00
2022-10-27T12:33:57.200Z,15.80
2022-10-27T12:37:09.250Z,15.70
2022-10-27T12:40:12.544Z,15.80
2022-10-27T12:43:20.611Z,15.80
2022-10-27T12:46:35.448Z,15.80
2022-10-27T12:49:40.138Z,15.70
2022-10-27T12:52:36.722Z,15.60
2022-10-27T12:55:28.904Z,15.70
2022-10-27T12:58:53.428Z,15.70
2022-10-27T13:02:02.352Z,15.80
2022-10-27T13:05:03.591Z,15.90
2022-10-27T13:08:17.771Z,15.90
2022-10-27T13:11:47.340Z,15.90
2022-10-27T13:15:04.280Z,15.90
2022-10-27T13:18:22.855Z,15.90
2022-10-27T13:21:33.005Z,15.90
2022-10-27T13:25:08.623Z,15.70
2022-10-27T13:28:03.483Z,15.50
2022-10-27T13:31:01.669Z,15.30
2022-10-27T13:34:03.021Z,15.20
2022-10-27T13:37:36.992Z,14.90
2022-10-27T13:40:38.969Z,14.90
2022-10-27T13:43:33.827Z,14.70
2022-10-27T13:47:02.506Z,14.50
2022-10-27T13:49:56.077Z,14.40
2022-10-27T13:53:08.160Z,14.40
2022-10-27T13:56:39.062Z,14.40
2022-10-27T13:59:33.405Z,14.30
2022-10-27T14:02:42.666Z,14.30
2022-10-27T14:05:48.218Z,14.30
2022-10-27T14:08:46.172Z,14.40
2022-10-27T14:11:46.759Z,14.30
2022-10-27T14:14:40.744Z,14.30
2022-10-27T14:17:33.137Z,14.30
2022-10-27T14:20:30.792Z,14.30
2022-10-27T14:23:23.231Z,14.20
2022-10-27T14:26:35.428Z,14.10
2022-10-27T14:29:28.175Z,14.10
2022-10-27T14:32:20.580Z,14.00
2022-10-27T14:35:30.876Z,14.00
2022-10-27T14:38:23.292Z,13.90
2022-10-27T14:41:21.492Z,13.90
2022-10-27T14:44:23.044Z,13.80
2022-10-27T14:47:17.290Z,13.80
2022-10-27T14:50:20.328Z,13.70
2022-10-27T14:53:33.319Z,13.60
2022-10-27T14:56:27.974Z,13.60
2022-10-27T14:59:23.528Z,13.60
2022-10-27T15:02:15.704Z,13.50
2022-10-27T15:05:21.511Z,13.50
2022-10-27T15:08:19.181Z,13.50
2022-10-27T15:11:21.310Z,13.40
2022-10-27T15:14:14.810Z,13.50
2022-10-27T15:17:09.657Z,13.50
2022-10-27T15:20:07.348Z,13.40
2022-10-27T15:22:59.899Z,13.40
2022-10-27T15:25:58.390Z,13.40
2022-10-27T15:28:53.654Z,13.30
2022-10-27T15:31:46.707Z,13.30
2022-10-27T15:34:39.028Z,13.30
2022-10-27T15:37:33.637Z,13.30
2022-10-27T15:40:28.839Z,13.30
2022-10-27T15:43:30.565Z,13.30
2022-10-27T15:46:31.806Z,13.30
2022-10-27T15:49:33.215Z,13.30
2022-10-27T15:52:29.482Z,13.40
2022-10-27T15:55:27.445Z,13.40
2022-10-27T15:58:26.879Z,13.40
2022-10-27T16:01:33.519Z,13.40
2022-10-27T16:04:39.968Z,13.40
2022-10-27T16:07:32.500Z,13.20
2022-10-27T16:10:25.719Z,13.00
2022-10-27T16:13:20.328Z,13.00
2022-10-27T16:16:12.649Z,13.00
2022-10-27T16:19:06.440Z,12.90
2022-10-27T16:21:58.558Z,12.90
2022-10-27T16:24:50.721Z,12.90
2022-10-27T16:27:43.034Z,13.00
2022-10-27T16:30:36.037Z,12.90
2022-10-27T16:33:28.213Z,12.90
2022-10-27T16:36:20.323Z,12.90
2022-10-27T16:39:12.431Z,12.90
2022-10-27T16:42:04.553Z,12.90
2022-10-27T16:44:56.768Z,12.90
2022-10-27T16:47:53.035Z,12.90
2022-10-27T16:50:46.389Z,12.90
2022-10-27T16:53:38.515Z,12.90
2022-10-27T16:56:30.834Z,12.90
2022-10-27T16:59:23.101Z,13.00
2022-10-27T17:02:15.270Z,13.00
2022-10-27T17:05:08.176Z,13.10
2022-10-27T17:08:00.311Z,13.10
2022-10-27T17:10:52.484Z,13.10
2022-10-27T17:13:44.874Z,13.20
2022-10-27T17:16:37.052Z,13.20
2022-10-27T17:19:30.361Z,13.30
2022-10-27T17:22:22.515Z,13.30
2022-10-27T17:25:14.740Z,13.30
2022-10-27T17:28:06.822Z,13.30
2022-10-27T17:31:04.591Z,13.40
2022-10-27T17:33:57.599Z,13.40
2022-10-27T17:36:49.707Z,13.40
2022-10-27T17:39:41.835Z,13.50
2022-10-27T17:42:34.020Z,13.40
2022-10-27T17:45:26.154Z,13.30
2022-10-27T17:48:18.355Z,13.40
2022-10-27T17:51:22.026Z,13.50
2022-10-27T17:54:16.965Z,13.50
2022-10-27T17:57:16.962Z,13.60
2022-10-27T18:00:11.591Z,13.60
2022-10-27T18:03:03.799Z,13.50
2022-10-27T18:06:03.635Z,13.50
2022-10-27T18:08:58.284Z,13.40
2022-10-27T18:11:50.454Z,13.40
2022-10-27T18:14:42.587Z,13.40
2022-10-27T18:17:34.702Z,13.40
2022-10-27T18:20:26.908Z,13.40
2022-10-27T18:23:19.151Z,13.40
2022-10-27T18:26:11.273Z,13.50
2022-10-27T18:29:04.875Z,13.40
2022-10-27T18:31:57.017Z,13.50
2022-10-27T18:34:49.224Z,13.50
2022-10-27T18:37:41.331Z,13.60
2022-10-27T18:40:33.465Z,13.50
2022-10-27T18:43:25.735Z,13.40
2022-10-27T18:46:19.225Z,13.40
2022-10-27T18:49:20.425Z,13.40
2022-10-27T18:52:17.731Z,13.30
2022-10-27T18:55:09.962Z,13.20
2022-10-27T18:58:02.193Z,13.20
2022-10-27T19:00:54.461Z,13.10
2022-10-27T19:03:49.319Z,13.10
2022-10-27T19:06:46.585Z,13.10
2022-10-27T19:09:38.692Z,13.20
2022-10-27T19:12:30.813Z,13.10
2022-10-27T19:15:23.170Z,13.10
2022-10-27T19:18:15.314Z,13.10
2022-10-27T19:21:11.754Z,13.10
2022-10-27T19:24:04.291Z,13.10
2022-10-27T19:26:56.420Z,13.20
2022-10-27T19:29:48.767Z,13.20
2022-10-27T19:32:40.944Z,13.10
2022-10-27T19:35:35.120Z,13.20
2022-10-27T19:38:27.264Z,13.20
2022-10-27T19:41:25.399Z,13.30
2022-10-27T19:44:17.577Z,13.20
2022-10-27T19:47:09.995Z,13.20
2022-10-27T19:50:02.159Z,13.20
2022-10-27T19:52:54.335Z,13.00
2022-10-27T19:55:46.517Z,12.80
2022-10-27T19:58:38.760Z,12.70
2022-10-27T20:01:36.488Z,12.60
2022-10-27T20:04:28.797Z,12.60
2022-10-27T20:07:20.884Z,12.60
2022-10-27T20:10:13.025Z,12.60
2022-10-27T20:13:05.146Z,12.60
2022-10-27T20:16:03.097Z,12.60
2022-10-27T20:18:56.371Z,12.50
2022-10-27T20:21:49.618Z,12.60
2022-10-27T20:24:41.764Z,12.60
2022-10-27T20:27:34.007Z,12.50
2022-10-27T20:30:26.231Z,12.50
2022-10-27T20:33:18.411Z,12.50
2022-10-27T20:36:15.378Z,12.40
2022-10-27T20:39:09.457Z,12.40
2022-10-27T20:42:01.592Z,12.40
2022-10-27T20:44:53.744Z,12.40
2022-10-27T20:47:45.862Z,12.40
2022-10-27T20:50:37.965Z,12.50
2022-10-27T20:53:31.334Z,12.60
2022-10-27T20:56:29.365Z,12.70
2022-10-27T20:59:23.991Z,12.70
2022-10-27T21:02:18.512Z,12.80
2022-10-27T21:05:10.732Z,12.90
2022-10-27T21:08:03.308Z,12.80
2022-10-27T21:10:55.436Z,12.70
2022-10-27T21:13:54.919Z,12.70
2022-10-27T21:16:51.443Z,12.70
2022-10-27T21:19:43.951Z,12.70
2022-10-27T21:22:36.058Z,12.70
2022-10-27T21:25:28.232Z,12.70
2022-10-27T21:28:20.350Z,12.60
2022-10-27T21:31:14.645Z,12.70
2022-10-27T21:34:06.780Z,12.70
2022-10-27T21:36:58.910Z,12.70
2022-10-27T21:39:51.030Z,12.70
2022-10-27T21:42:43.220Z,12.60
2022-10-27T21:45:35.436Z,12.60
2022-10-27T21:48:28.843Z,12.60
2022-10-27T21:51:21.218Z,12.60
2022-10-27T21:54:13.333Z,12.50
2022-10-27T21:57:05.444Z,12.40
2022-10-27T21:59:57.582Z,12.50
2022-10-27T22:02:49.730Z,12.60
2022-10-27T22:05:43.133Z,12.50
2022-10-27T22:08:35.991Z,12.50
2022-10-27T22:11:31.674Z,12.50
2022-10-27T22:14:23.790Z,12.60
2022-10-27T22:17:15.910Z,12.50
2022-10-27T22:20:08.340Z,12.40
2022-10-27T22:23:00.427Z,12.40
2022-10-27T22:25:52.910Z,12.40
2022-10-27T22:28:46.088Z,12.40
2022-10-27T22:31:38.276Z,12.30
2022-10-27T22:34:30.487Z,12.40
2022-10-27T22:37:22.649Z,12.30
2022-10-27T22:40:14.798Z,12.30
2022-10-27T22:43:07.450Z,12.30
2022-10-27T22:45:59.563Z,12.20
2022-10-27T22:48:52.272Z,12.30
2022-10-27T22:51:48.484Z,12.30
2022-10-27T22:54:40.600Z,12.40
2022-10-27T22:57:32.712Z,12.50
2022-10-27T23:00:24.819Z,12.50
2022-10-27T23:03:16.966Z,12.60
2022-10-27T23:06:09.264Z,12.50
2022-10-27T23:09:04.933Z,12.50
2022-10-27T23:11:57.068Z,12.40
2022-10-27T23:14:51.257Z,12.20
2022-10-27T23:17:43.575Z,12.20
2022-10-27T23:20:35.707Z,12.10
2022-10-27T23:23:29.583Z,12.00
2022-10-27T23:26:28.381Z,12.00
2022-10-27T23:29:20.587Z,11.90
2022-10-27T23:32:12.727Z,11.90
2022-10-27T23:35:05.224Z,11.90
2022-10-27T23:37:57.366Z,11.90
2022-10-27T23:40:54.672Z,11.80
2022-10-27T23:44:04.741Z,11.80
2022-10-27T23:46:56.887Z,11.80
2022-10-27T23:49:49.047Z,11.80
2022-10-27T23:52:41.180Z,11.80
2022-10-27T23:55:33.284Z,11.80
2022-10-27T23:58:27.830Z,11.80
